createdAt,value
2023-03-15T00:00:33.034Z,1.72
2023-03-15T00:04:18.924Z,1.74
2023-03-15T00:07:46.084Z,1.73
2023-03-15T00:11:13.284Z,1.73
2023-03-15T00:14:40.891Z,1.74
2023-03-15T00:18:08.158Z,1.72
2023-03-15T00:21:35.316Z,1.72
2023-03-15T00:25:02.417Z,1.72
2023-03-15T00:28:29.747Z,1.73
2023-03-15T00:31:56.860Z,1.72
2023-03-15T00:35:25.055Z,1.73
2023-03-15T00:38:53.424Z,1.71
2023-03-15T00:42:20.487Z,1.69
2023-03-15T00:45:49.198Z,1.64
2023-03-15T00:49:16.190Z,1.59
2023-03-15T00:52:43.186Z,1.53
2023-03-15T00:56:12.242Z,1.47
2023-03-15T00:59:39.281Z,1.40
2023-03-15T01:03:07.715Z,1.33
2023-03-15T01:06:35.042Z,1.28
2023-03-15T01:10:02.665Z,1.22
2023-03-15T01:13:30.596Z,1.15
2023-03-15T01:16:57.668Z,1.11
2023-03-15T01:20:25.013Z,1.05
2023-03-15T01:23:52.704Z,0.99
2023-03-15T01:27:21.884Z,0.93
2023-03-15T01:30:53.845Z,0.89
2023-03-15T01:34:22.766Z,0.87
2023-03-15T01:37:52.069Z,0.83
2023-03-15T01:41:20.795Z,0.78
2023-03-15T01:44:56.804Z,0.77
2023-03-15T01:48:27.839Z,0.74
2023-03-15T01:51:59.583Z,0.70
2023-03-15T01:55:33.787Z,0.67
2023-03-15T01:59:11.742Z,0.65
2023-03-15T02:02:40.755Z,0.64
2023-03-15T02:06:11.004Z,0.62
2023-03-15T02:09:49.746Z,0.59
2023-03-15T02:13:22.818Z,0.55
2023-03-15T02:16:53.534Z,0.52
2023-03-15T02:20:33.415Z,0.47
2023-03-15T02:24:02.151Z,0.42
2023-03-15T02:27:32.428Z,0.36
2023-03-15T02:31:00.160Z,0.29
2023-03-15T02:34:30.186Z,0.22
2023-03-15T02:37:57.448Z,0.17
2023-03-15T02:41:29.661Z,0.12
2023-03-15T02:44:57.773Z,0.07
2023-03-15T02:48:25.015Z,0.03
2023-03-15T02:51:52.434Z,-0.00
2023-03-15T02:55:21.888Z,-0.02
2023-03-15T02:58:47.340Z,-0.05
2023-03-15T03:02:15.471Z,-0.08
2023-03-15T03:05:43.375Z,-0.11
2023-03-15T03:09:10.664Z,-0.12
2023-03-15T03:12:38.564Z,-0.14
2023-03-15T03:16:06.169Z,-0.15
2023-03-15T03:19:33.372Z,-0.18
2023-03-15T03:23:05.907Z,-0.22
2023-03-15T03:26:33.370Z,-0.26
2023-03-15T03:30:01.645Z,-0.31
2023-03-15T03:33:29.526Z,-0.34
2023-03-15T03:36:57.124Z,-0.38
2023-03-15T03:40:38.991Z,-0.42
2023-03-15T03:44:06.727Z,-0.46
2023-03-15T03:47:34.444Z,-0.50
2023-03-15T03:51:01.787Z,-0.54
2023-03-15T03:54:29.463Z,-0.56
2023-03-15T03:57:57.344Z,-0.58
2023-03-15T04:01:36.269Z,-0.61
2023-03-15T04:05:03.600Z,-0.63
2023-03-15T04:08:31.204Z,-0.63
2023-03-15T04:11:58.922Z,-0.65
2023-03-15T04:15:26.842Z,-0.66
2023-03-15T04:18:57.604Z,-0.67
2023-03-15T04:22:25.371Z,-0.68
2023-03-15T04:26:06.774Z,-0.69
2023-03-15T04:29:52.669Z,-0.68
2023-03-15T04:33:46.356Z,-0.68
2023-03-15T04:37:36.456Z,-0.68
2023-03-15T04:41:21.638Z,-0.68
2023-03-15T04:45:00.988Z,-0.68
2023-03-15T04:48:39.217Z,-0.67
2023-03-15T04:52:29.634Z,-0.66
2023-03-15T04:56:15.300Z,-0.66
2023-03-15T05:00:12.201Z,-0.68
2023-03-15T05:03:51.298Z,-0.68
2023-03-15T05:07:47.370Z,-0.69
2023-03-15T05:11:28.429Z,-0.70
2023-03-15T05:15:29.559Z,-0.72
2023-03-15T05:19:12.170Z,-0.73
2023-03-15T05:22:47.140Z,-0.73
2023-03-15T05:26:32.719Z,-0.72
2023-03-15T05:30:17.277Z,-0.71
2023-03-15T05:34:04.420Z,-0.69
2023-03-15T05:37:50.119Z,-0.66
2023-03-15T05:41:53.032Z,-0.65
2023-03-15T05:45:44.734Z,-0.62
2023-03-15T05:49:27.379Z,-0.58
2023-03-15T05:53:09.996Z,-0.52
2023-03-15T05:57:00.621Z,-0.46
2023-03-15T06:00:44.142Z,-0.29
2023-03-15T06:04:17.488Z,-0.02
2023-03-15T06:07:46.346Z,0.29
2023-03-15T06:11:14.439Z,0.45
2023-03-15T06:14:41.799Z,0.56
2023-03-15T06:18:09.607Z,0.70
2023-03-15T06:21:37.007Z,0.84
2023-03-15T06:25:11.518Z,0.91
2023-03-15T06:28:40.058Z,0.88
2023-03-15T06:32:08.372Z,0.84
2023-03-15T06:35:38.146Z,0.80
2023-03-15T06:39:05.747Z,0.80
2023-03-15T06:42:32.894Z,1.02
2023-03-15T06:46:00.440Z,1.21
2023-03-15T06:49:28.239Z,1.34
2023-03-15T06:52:55.445Z,1.47
2023-03-15T06:56:23.071Z,1.62
2023-03-15T06:59:50.861Z,1.76
2023-03-15T07:03:19.335Z,1.93
2023-03-15T07:06:46.465Z,2.09
2023-03-15T07:10:14.632Z,2.23
2023-03-15T07:13:42.256Z,2.51
2023-03-15T07:17:09.781Z,2.83
2023-03-15T07:20:37.866Z,3.14
2023-03-15T07:24:05.510Z,3.48
2023-03-15T07:27:32.592Z,3.76
2023-03-15T07:31:01.788Z,4.00
2023-03-15T07:34:29.140Z,4.16
2023-03-15T07:37:56.359Z,4.25
2023-03-15T07:41:23.418Z,4.20
2023-03-15T07:45:06.132Z,4.30
2023-03-15T07:48:33.449Z,4.54
2023-03-15T07:52:00.543Z,4.69
2023-03-15T07:55:28.205Z,4.76
2023-03-15T07:58:55.226Z,4.86
2023-03-15T08:02:22.299Z,4.83
2023-03-15T08:05:51.796Z,4.84
2023-03-15T08:09:18.788Z,5.03
2023-03-15T08:12:46.150Z,5.29
2023-03-15T08:16:13.250Z,5.41
2023-03-15T08:19:40.583Z,5.45
2023-03-15T08:23:09.182Z,5.47
2023-03-15T08:26:36.303Z,5.44
2023-03-15T08:30:03.700Z,5.30
2023-03-15T08:33:31.903Z,5.18
2023-03-15T08:36:59.109Z,5.10
2023-03-15T08:40:26.452Z,5.05
2023-03-15T08:43:53.725Z,5.02
2023-03-15T08:47:20.837Z,5.04
2023-03-15T08:50:48.017Z,5.01
2023-03-15T08:54:15.469Z,4.99
2023-03-15T08:57:43.955Z,4.98
2023-03-15T09:01:13.790Z,4.94
2023-03-15T09:04:39.331Z,5.02
2023-03-15T09:08:06.696Z,5.16
2023-03-15T09:11:33.826Z,5.44
2023-03-15T09:15:01.091Z,5.65
2023-03-15T09:18:28.568Z,5.93
2023-03-15T09:21:59.450Z,6.05
2023-03-15T09:25:30.692Z,6.02
2023-03-15T09:28:58.696Z,6.06
2023-03-15T09:32:29.034Z,6.12
2023-03-15T09:35:56.611Z,6.19
2023-03-15T09:39:24.822Z,6.22
2023-03-15T09:43:05.387Z,6.26
2023-03-15T09:46:35.263Z,6.29
2023-03-15T09:50:07.627Z,6.26
2023-03-15T09:53:41.468Z,6.37
2023-03-15T09:57:16.693Z,6.51
2023-03-15T10:00:47.736Z,6.54
2023-03-15T10:04:24.855Z,6.52
2023-03-15T10:07:52.414Z,6.47
2023-03-15T10:11:26.834Z,6.46
2023-03-15T10:15:25.711Z,6.49
2023-03-15T10:19:03.795Z,6.66
2023-03-15T10:22:35.496Z,6.82
2023-03-15T10:26:05.289Z,7.04
2023-03-15T10:29:32.984Z,7.20
2023-03-15T10:33:05.398Z,7.45
2023-03-15T10:36:32.527Z,7.60
2023-03-15T10:40:01.450Z,7.61
2023-03-15T10:43:32.303Z,7.48
2023-03-15T10:47:21.974Z,7.43
2023-03-15T10:50:52.059Z,7.54
2023-03-15T10:54:21.378Z,7.62
2023-03-15T10:57:56.937Z,7.67
2023-03-15T11:01:30.085Z,7.69
2023-03-15T11:05:14.767Z,7.65
2023-03-15T11:08:43.254Z,7.51
2023-03-15T11:12:19.340Z,7.52
2023-03-15T11:16:04.250Z,7.56
2023-03-15T11:19:35.540Z,7.47
2023-03-15T11:23:07.150Z,7.40
2023-03-15T11:26:38.655Z,7.47
2023-03-15T11:30:06.665Z,7.64
2023-03-15T11:33:44.997Z,7.59
2023-03-15T11:37:20.962Z,7.53
2023-03-15T11:40:52.843Z,7.59
2023-03-15T11:44:28.625Z,7.74
2023-03-15T11:47:58.592Z,7.64
2023-03-15T11:51:25.754Z,7.49
2023-03-15T11:54:55.653Z,7.36
2023-03-15T11:58:33.110Z,7.20
2023-03-15T12:02:22.405Z,7.15
2023-03-15T12:05:52.703Z,7.27
2023-03-15T12:09:49.159Z,7.32
2023-03-15T12:13:30.966Z,7.28
2023-03-15T12:17:40.473Z,7.14
2023-03-15T12:21:15.896Z,6.88
2023-03-15T12:24:45.605Z,6.88
2023-03-15T12:28:23.733Z,7.10
2023-03-15T12:32:01.116Z,7.27
2023-03-15T12:35:39.637Z,7.30
2023-03-15T12:39:38.369Z,7.49
2023-03-15T12:43:05.787Z,7.70
2023-03-15T12:46:55.907Z,7.78
2023-03-15T12:50:53.154Z,7.90
2023-03-15T12:54:22.442Z,8.14
2023-03-15T12:57:54.043Z,8.41
2023-03-15T13:01:25.976Z,8.71
2023-03-15T13:05:03.652Z,8.92
2023-03-15T13:08:41.628Z,8.79
2023-03-15T13:12:15.442Z,8.21
2023-03-15T13:15:46.307Z,7.57
2023-03-15T13:19:22.955Z,7.29
2023-03-15T13:22:58.797Z,7.07
2023-03-15T13:26:37.738Z,6.90
2023-03-15T13:30:25.918Z,6.86
2023-03-15T13:33:57.540Z,6.89
2023-03-15T13:37:27.100Z,7.03
2023-03-15T13:40:54.464Z,7.18
2023-03-15T13:44:25.269Z,7.38
2023-03-15T13:47:52.568Z,7.63
2023-03-15T13:51:25.521Z,7.86
2023-03-15T13:54:55.554Z,7.72
2023-03-15T13:58:23.497Z,6.95
2023-03-15T14:01:54.509Z,5.99
2023-03-15T14:05:27.611Z,5.26
2023-03-15T14:09:01.101Z,4.72
2023-03-15T14:12:33.385Z,4.34
2023-03-15T14:16:03.310Z,4.19
2023-03-15T14:19:34.065Z,4.14
2023-03-15T14:23:04.259Z,4.17
2023-03-15T14:26:32.475Z,4.33
2023-03-15T14:30:02.147Z,4.57
2023-03-15T14:33:34.621Z,4.62
2023-03-15T14:37:04.433Z,4.70
2023-03-15T14:40:35.067Z,4.93
2023-03-15T14:44:04.154Z,5.13
2023-03-15T14:47:31.339Z,5.25
2023-03-15T14:50:59.111Z,5.33
2023-03-15T14:54:26.578Z,5.42
2023-03-15T14:57:53.838Z,5.45
2023-03-15T15:01:25.210Z,5.45
2023-03-15T15:04:52.579Z,5.47
2023-03-15T15:08:22.795Z,5.45
2023-03-15T15:11:49.896Z,5.43
2023-03-15T15:15:21.641Z,5.45
2023-03-15T15:18:48.879Z,5.49
2023-03-15T15:22:15.919Z,5.54
2023-03-15T15:25:44.883Z,5.58
2023-03-15T15:29:16.283Z,5.67
2023-03-15T15:32:45.138Z,5.72
2023-03-15T15:36:19.383Z,5.73
2023-03-15T15:39:47.614Z,5.67
2023-03-15T15:43:14.773Z,5.61
2023-03-15T15:46:41.937Z,5.54
2023-03-15T15:50:12.914Z,5.52
2023-03-15T15:53:39.960Z,5.46
2023-03-15T15:57:08.773Z,5.41
2023-03-15T16:00:37.106Z,5.38
2023-03-15T16:04:05.519Z,5.31
2023-03-15T16:07:34.390Z,5.21
2023-03-15T16:11:02.353Z,5.11
2023-03-15T16:14:31.537Z,5.06
2023-03-15T16:18:01.171Z,5.00
2023-03-15T16:21:34.770Z,4.93
2023-03-15T16:25:03.535Z,4.90
2023-03-15T16:28:33.106Z,4.86
2023-03-15T16:32:10.168Z,4.79
2023-03-15T16:35:42.117Z,4.68
2023-03-15T16:39:11.510Z,4.59
2023-03-15T16:42:38.915Z,4.46
2023-03-15T16:46:16.705Z,4.32
2023-03-15T16:49:43.757Z,4.16
2023-03-15T16:53:13.730Z,3.99
2023-03-15T16:56:40.970Z,3.81
2023-03-15T17:00:12.806Z,3.64
2023-03-15T17:03:40.197Z,3.47
2023-03-15T17:07:07.395Z,3.31
2023-03-15T17:10:34.834Z,3.13
2023-03-15T17:14:02.278Z,2.96
2023-03-15T17:17:33.189Z,2.81
2023-03-15T17:21:01.016Z,2.66
2023-03-15T17:24:28.414Z,2.54
2023-03-15T17:27:55.655Z,2.42
2023-03-15T17:31:25.790Z,2.29
2023-03-15T17:34:58.945Z,2.18
2023-03-15T17:38:32.187Z,2.07
2023-03-15T17:42:00.265Z,1.95
2023-03-15T17:45:30.265Z,1.84
2023-03-15T17:48:58.139Z,1.72
2023-03-15T17:52:25.436Z,1.61
2023-03-15T17:55:53.959Z,1.51
2023-03-15T17:59:21.887Z,1.40
2023-03-15T18:02:55.710Z,1.29
2023-03-15T18:06:25.157Z,1.19
2023-03-15T18:09:53.435Z,1.09
2023-03-15T18:13:23.747Z,1.02
2023-03-15T18:16:51.814Z,0.94
2023-03-15T18:20:22.376Z,0.88
2023-03-15T18:23:51.189Z,0.81
2023-03-15T18:27:20.025Z,0.77
2023-03-15T18:34:32.635Z,0.64
2023-03-15T18:38:00.537Z,0.58
2023-03-15T18:41:28.899Z,0.53
2023-03-15T18:44:59.146Z,0.46
2023-03-15T18:48:40.004Z,0.39
2023-03-15T18:52:09.521Z,0.32
2023-03-15T18:55:37.581Z,0.25
2023-03-15T18:59:05.946Z,0.20
2023-03-15T19:02:34.185Z,0.15
2023-03-15T19:06:09.199Z,0.13
2023-03-15T19:09:36.880Z,0.13
2023-03-15T19:13:05.931Z,0.14
2023-03-15T19:16:33.680Z,0.17
2023-03-15T19:20:01.171Z,0.26
2023-03-15T19:23:29.955Z,0.29
2023-03-15T19:26:59.253Z,0.31
2023-03-15T19:30:27.858Z,0.31
2023-03-15T19:33:56.096Z,0.26
2023-03-15T19:37:23.182Z,0.19
2023-03-15T19:40:55.032Z,0.11
2023-03-15T19:44:23.500Z,0.02
2023-03-15T19:47:50.983Z,-0.07
2023-03-15T19:51:18.067Z,-0.14
2023-03-15T19:54:47.204Z,-0.20
2023-03-15T19:58:14.807Z,-0.26
2023-03-15T20:01:42.350Z,-0.33
2023-03-15T20:05:12.819Z,-0.39
2023-03-15T20:08:40.578Z,-0.44
2023-03-15T20:12:09.307Z,-0.51
2023-03-15T20:15:36.657Z,-0.59
2023-03-15T20:19:04.042Z,-0.65
2023-03-15T20:22:32.967Z,-0.71
2023-03-15T20:26:09.951Z,-0.78
2023-03-15T20:29:37.040Z,-0.83
2023-03-15T20:33:04.217Z,-0.87
2023-03-15T20:36:33.480Z,-0.92
2023-03-15T20:40:00.840Z,-0.97
2023-03-15T20:43:28.613Z,-1.02
2023-03-15T20:46:58.917Z,-1.06
2023-03-15T20:50:26.027Z,-1.10
2023-03-15T20:53:53.258Z,-1.15
2023-03-15T20:57:20.826Z,-1.20
2023-03-15T21:00:48.050Z,-1.24
2023-03-15T21:04:16.230Z,-1.27
2023-03-15T21:07:44.150Z,-1.30
2023-03-15T21:11:11.155Z,-1.34
2023-03-15T21:14:38.524Z,-1.36
2023-03-15T21:18:05.621Z,-1.38
2023-03-15T21:21:32.692Z,-1.40
2023-03-15T21:25:00.514Z,-1.42
2023-03-15T21:28:27.928Z,-1.45
2023-03-15T21:31:55.212Z,-1.45
2023-03-15T21:35:23.252Z,-1.40
2023-03-15T21:38:50.529Z,-1.34
2023-03-15T21:42:17.959Z,-1.26
2023-03-15T21:45:45.221Z,-1.18
2023-03-15T21:49:13.410Z,-1.10
2023-03-15T21:52:40.518Z,-1.02
2023-03-15T21:56:08.786Z,-0.95
2023-03-15T21:59:36.630Z,-0.91
2023-03-15T22:03:04.219Z,-0.87
2023-03-15T22:06:32.488Z,-0.82
2023-03-15T22:09:59.529Z,-0.77
2023-03-15T22:13:27.669Z,-0.72
2023-03-15T22:16:55.025Z,-0.68
2023-03-15T22:20:25.003Z,-0.67
2023-03-15T22:23:53.199Z,-0.67
2023-03-15T22:27:20.456Z,-0.68
2023-03-15T22:30:50.425Z,-0.73
2023-03-15T22:34:17.568Z,-0.77
2023-03-15T22:37:44.691Z,-0.82
2023-03-15T22:41:14.107Z,-0.87
2023-03-15T22:44:41.264Z,-0.93
2023-03-15T22:48:08.936Z,-0.99
2023-03-15T22:51:35.963Z,-1.03
2023-03-15T22:55:03.169Z,-1.05
2023-03-15T22:58:30.511Z,-1.07
2023-03-15T23:01:57.939Z,-1.10
2023-03-15T23:05:25.243Z,-1.13
2023-03-15T23:08:52.348Z,-1.15
2023-03-15T23:12:24.333Z,-1.17
2023-03-15T23:15:55.626Z,-1.17
2023-03-15T23:19:23.446Z,-1.17
2023-03-15T23:22:51.113Z,-1.19
2023-03-15T23:26:20.482Z,-1.22
2023-03-15T23:29:53.986Z,-1.24
2023-03-15T23:33:23.257Z,-1.25
2023-03-15T23:36:50.543Z,-1.24
2023-03-15T23:40:17.829Z,-1.24
2023-03-15T23:43:44.825Z,-1.25
2023-03-15T23:47:12.766Z,-1.26
2023-03-15T23:50:44.424Z,-1.30
2023-03-15T23:54:13.017Z,-1.33
2023-03-15T23:57:40.371Z,-1.37
